Airport ID:CYBF
Update Time (UTC):03/12/2022 19:00
Wind Speed (Knots):9
Wind Direction (Magnetic):230
Temperature (°C):-14.9
Dew Point (°C):-20.3
Humidity (%):64
Altimeter (inHg):29.88
Density Altitude (Feet):\\\\
Visibility (Miles):6
Clouds (Hundreds of feet):NCD
Present Weather:
METAR:METAR CYBF 031900Z AUTO 25010KT 10SM NCD M15/M20 A2987=

The data displayed is for advisory purposes only and is not to be used for flight planning or operations.

This page is not automatically refreshed. Reload the page to see current data.